sensor_id;sensor_type;location;lat;lon;timestamp;temperature;humidity
59128;DHT22;44912;52.754;5.994;2023-08-31T00:00:49;12.40;99.90
59128;DHT22;44912;52.754;5.994;2023-08-31T00:03:16;12.40;99.90
59128;DHT22;44912;52.754;5.994;2023-08-31T00:05:43;12.40;99.90
59128;DHT22;44912;52.754;5.994;2023-08-31T00:08:10;12.40;99.90
59128;DHT22;44912;52.754;5.994;2023-08-31T00:10:37;12.40;99.90
59128;DHT22;44912;52.754;5.994;2023-08-31T00:13:03;12.40;99.90
59128;DHT22;44912;52.754;5.994;2023-08-31T00:15:29;12.40;99.90
59128;DHT22;44912;52.754;5.994;2023-08-31T00:17:58;12.40;99.90
59128;DHT22;44912;52.754;5.994;2023-08-31T00:20:23;12.40;99.90
59128;DHT22;44912;52.754;5.994;2023-08-31T00:22:49;12.40;99.90
59128;DHT22;44912;52.754;5.994;2023-08-31T00:25:15;12.40;99.90
59128;DHT22;44912;52.754;5.994;2023-08-31T00:27:40;12.40;99.90
59128;DHT22;44912;52.754;5.994;2023-08-31T00:30:07;12.40;99.90
59128;DHT22;44912;52.754;5.994;2023-08-31T00:32:36;12.40;99.90
59128;DHT22;44912;52.754;5.994;2023-08-31T00:35:02;12.40;99.90
59128;DHT22;44912;52.754;5.994;2023-08-31T00:37:29;12.40;99.90
59128;DHT22;44912;52.754;5.994;2023-08-31T00:42:58;12.40;99.90
59128;DHT22;44912;52.754;5.994;2023-08-31T00:48:23;12.40;99.90
59128;DHT22;44912;52.754;5.994;2023-08-31T00:50:54;12.30;99.90
59128;DHT22;44912;52.754;5.994;2023-08-31T00:54:12;12.40;99.90
59128;DHT22;44912;52.754;5.994;2023-08-31T00:56:50;12.40;99.90
59128;DHT22;44912;52.754;5.994;2023-08-31T00:59:32;12.40;99.90
59128;DHT22;44912;52.754;5.994;2023-08-31T01:02:19;12.40;99.90
59128;DHT22;44912;52.754;5.994;2023-08-31T01:07:48;12.50;99.90
59128;DHT22;44912;52.754;5.994;2023-08-31T01:10:25;12.40;99.90
59128;DHT22;44912;52.754;5.994;2023-08-31T01:12:58;12.40;99.90
59128;DHT22;44912;52.754;5.994;2023-08-31T01:15:27;12.40;99.90
59128;DHT22;44912;52.754;5.994;2023-08-31T01:17:57;12.40;99.90
59128;DHT22;44912;52.754;5.994;2023-08-31T01:20:32;12.40;99.90
59128;DHT22;44912;52.754;5.994;2023-08-31T01:23:06;12.40;99.90
59128;DHT22;44912;52.754;5.994;2023-08-31T01:25:32;12.20;99.90
59128;DHT22;44912;52.754;5.994;2023-08-31T01:28:00;12.20;99.90
59128;DHT22;44912;52.754;5.994;2023-08-31T01:30:30;12.20;99.90
59128;DHT22;44912;52.754;5.994;2023-08-31T01:32:56;12.20;99.90
59128;DHT22;44912;52.754;5.994;2023-08-31T01:35:22;12.20;99.90
59128;DHT22;44912;52.754;5.994;2023-08-31T01:40:25;12.10;99.90
59128;DHT22;44912;52.754;5.994;2023-08-31T01:42:54;12.10;99.90
59128;DHT22;44912;52.754;5.994;2023-08-31T01:45:22;12.00;99.90
59128;DHT22;44912;52.754;5.994;2023-08-31T01:47:48;12.00;99.90
59128;DHT22;44912;52.754;5.994;2023-08-31T01:50:14;12.00;99.90
59128;DHT22;44912;52.754;5.994;2023-08-31T01:52:39;12.00;99.90
59128;DHT22;44912;52.754;5.994;2023-08-31T01:55:06;11.90;99.90
59128;DHT22;44912;52.754;5.994;2023-08-31T01:57:32;12.00;99.90
59128;DHT22;44912;52.754;5.994;2023-08-31T01:59:58;12.00;99.90
59128;DHT22;44912;52.754;5.994;2023-08-31T02:02:24;12.10;99.90
59128;DHT22;44912;52.754;5.994;2023-08-31T02:04:49;12.00;99.90
59128;DHT22;44912;52.754;5.994;2023-08-31T02:07:16;12.10;99.90
59128;DHT22;44912;52.754;5.994;2023-08-31T02:09:42;12.10;99.90
59128;DHT22;44912;52.754;5.994;2023-08-31T02:12:07;12.10;99.90
59128;DHT22;44912;52.754;5.994;2023-08-31T02:14:35;12.10;99.90
59128;DHT22;44912;52.754;5.994;2023-08-31T02:17:00;12.10;99.90
59128;DHT22;44912;52.754;5.994;2023-08-31T02:19:26;12.10;99.90
59128;DHT22;44912;52.754;5.994;2023-08-31T02:21:51;12.10;99.90
59128;DHT22;44912;52.754;5.994;2023-08-31T02:24:17;12.00;99.90
59128;DHT22;44912;52.754;5.994;2023-08-31T02:26:42;12.00;99.90
59128;DHT22;44912;52.754;5.994;2023-08-31T02:29:10;12.10;99.90
59128;DHT22;44912;52.754;5.994;2023-08-31T02:31:36;12.00;99.90
59128;DHT22;44912;52.754;5.994;2023-08-31T02:34:03;12.00;99.90
59128;DHT22;44912;52.754;5.994;2023-08-31T02:36:29;12.00;99.90
59128;DHT22;44912;52.754;5.994;2023-08-31T02:38:56;12.00;99.90
59128;DHT22;44912;52.754;5.994;2023-08-31T02:41:21;11.90;99.90
59128;DHT22;44912;52.754;5.994;2023-08-31T02:43:50;11.90;99.90
59128;DHT22;44912;52.754;5.994;2023-08-31T02:46:16;12.00;99.90
59128;DHT22;44912;52.754;5.994;2023-08-31T02:48:41;11.90;99.90
59128;DHT22;44912;52.754;5.994;2023-08-31T02:51:07;12.00;99.90
59128;DHT22;44912;52.754;5.994;2023-08-31T02:53:32;12.00;99.90
59128;DHT22;44912;52.754;5.994;2023-08-31T02:55:58;11.90;99.90
59128;DHT22;44912;52.754;5.994;2023-08-31T02:58:24;12.00;99.90
59128;DHT22;44912;52.754;5.994;2023-08-31T03:00:50;12.00;99.90
59128;DHT22;44912;52.754;5.994;2023-08-31T03:03:16;11.90;99.90
59128;DHT22;44912;52.754;5.994;2023-08-31T03:05:42;11.90;99.90
59128;DHT22;44912;52.754;5.994;2023-08-31T03:08:07;11.90;99.90
59128;DHT22;44912;52.754;5.994;2023-08-31T03:10:33;11.90;99.90
59128;DHT22;44912;52.754;5.994;2023-08-31T03:12:58;11.90;99.90
59128;DHT22;44912;52.754;5.994;2023-08-31T03:15:24;12.00;99.90
59128;DHT22;44912;52.754;5.994;2023-08-31T03:17:49;11.90;99.90
59128;DHT22;44912;52.754;5.994;2023-08-31T03:20:15;11.90;99.90
59128;DHT22;44912;52.754;5.994;2023-08-31T03:22:40;11.90;99.90
59128;DHT22;44912;52.754;5.994;2023-08-31T03:25:06;11.90;99.90
59128;DHT22;44912;52.754;5.994;2023-08-31T03:27:32;12.00;99.90
59128;DHT22;44912;52.754;5.994;2023-08-31T03:29:57;11.90;99.90
59128;DHT22;44912;52.754;5.994;2023-08-31T03:32:23;12.00;99.90
59128;DHT22;44912;52.754;5.994;2023-08-31T03:34:48;12.00;99.90
59128;DHT22;44912;52.754;5.994;2023-08-31T03:37:15;12.00;99.90
59128;DHT22;44912;52.754;5.994;2023-08-31T03:39:41;11.90;99.90
59128;DHT22;44912;52.754;5.994;2023-08-31T03:42:08;12.00;99.90
59128;DHT22;44912;52.754;5.994;2023-08-31T03:44:34;12.00;99.90
59128;DHT22;44912;52.754;5.994;2023-08-31T03:47:00;12.00;99.90
59128;DHT22;44912;52.754;5.994;2023-08-31T03:49:40;12.00;99.90
59128;DHT22;44912;52.754;5.994;2023-08-31T03:52:12;12.00;99.90
59128;DHT22;44912;52.754;5.994;2023-08-31T03:54:39;12.10;99.90
59128;DHT22;44912;52.754;5.994;2023-08-31T03:57:05;12.10;99.90
59128;DHT22;44912;52.754;5.994;2023-08-31T03:59:31;12.10;99.90
59128;DHT22;44912;52.754;5.994;2023-08-31T04:01:57;12.10;99.90
59128;DHT22;44912;52.754;5.994;2023-08-31T04:04:22;12.20;99.90
59128;DHT22;44912;52.754;5.994;2023-08-31T04:06:51;12.10;99.90
59128;DHT22;44912;52.754;5.994;2023-08-31T04:09:16;12.20;99.90
59128;DHT22;44912;52.754;5.994;2023-08-31T04:11:42;12.10;99.90
59128;DHT22;44912;52.754;5.994;2023-08-31T04:14:08;12.20;99.90
59128;DHT22;44912;52.754;5.994;2023-08-31T04:16:33;12.10;99.90
59128;DHT22;44912;52.754;5.994;2023-08-31T04:18:59;12.10;99.90
59128;DHT22;44912;52.754;5.994;2023-08-31T04:21:24;12.10;99.90
59128;DHT22;44912;52.754;5.994;2023-08-31T04:23:50;12.20;99.90
59128;DHT22;44912;52.754;5.994;2023-08-31T04:26:15;12.30;99.90
59128;DHT22;44912;52.754;5.994;2023-08-31T04:28:42;12.30;99.90
59128;DHT22;44912;52.754;5.994;2023-08-31T04:31:08;12.20;99.90
59128;DHT22;44912;52.754;5.994;2023-08-31T04:33:35;12.30;99.90
59128;DHT22;44912;52.754;5.994;2023-08-31T04:36:04;12.30;99.90
59128;DHT22;44912;52.754;5.994;2023-08-31T04:38:31;12.30;99.90
59128;DHT22;44912;52.754;5.994;2023-08-31T04:41:00;12.20;99.90
59128;DHT22;44912;52.754;5.994;2023-08-31T04:43:27;12.20;99.90
59128;DHT22;44912;52.754;5.994;2023-08-31T04:45:56;12.20;99.90
59128;DHT22;44912;52.754;5.994;2023-08-31T04:48:24;12.10;99.90
59128;DHT22;44912;52.754;5.994;2023-08-31T04:50:49;12.20;99.90
59128;DHT22;44912;52.754;5.994;2023-08-31T04:53:15;12.10;99.90
59128;DHT22;44912;52.754;5.994;2023-08-31T04:55:40;12.00;99.90
59128;DHT22;44912;52.754;5.994;2023-08-31T04:58:06;12.10;99.90
59128;DHT22;44912;52.754;5.994;2023-08-31T05:00:31;12.10;99.90
59128;DHT22;44912;52.754;5.994;2023-08-31T05:02:57;12.10;99.90
59128;DHT22;44912;52.754;5.994;2023-08-31T05:05:23;12.00;99.90
59128;DHT22;44912;52.754;5.994;2023-08-31T05:07:50;12.00;99.90
59128;DHT22;44912;52.754;5.994;2023-08-31T05:10:16;12.00;99.90
59128;DHT22;44912;52.754;5.994;2023-08-31T05:12:42;12.00;99.90
59128;DHT22;44912;52.754;5.994;2023-08-31T05:15:08;11.90;99.90
59128;DHT22;44912;52.754;5.994;2023-08-31T05:17:35;12.00;99.90
59128;DHT22;44912;52.754;5.994;2023-08-31T05:31:34;11.90;99.90
59128;DHT22;44912;52.754;5.994;2023-08-31T05:37:57;11.90;99.90
59128;DHT22;44912;52.754;5.994;2023-08-31T05:44:14;11.90;99.90
59128;DHT22;44912;52.754;5.994;2023-08-31T05:50:01;12.00;99.90
59128;DHT22;44912;52.754;5.994;2023-08-31T05:52:30;12.10;99.90
59128;DHT22;44912;52.754;5.994;2023-08-31T05:54:55;12.10;99.90
59128;DHT22;44912;52.754;5.994;2023-08-31T05:58:04;12.10;99.90
59128;DHT22;44912;52.754;5.994;2023-08-31T06:01:16;12.30;99.90
59128;DHT22;44912;52.754;5.994;2023-08-31T06:08:20;12.60;99.90
59128;DHT22;44912;52.754;5.994;2023-08-31T06:10:46;12.70;99.90
59128;DHT22;44912;52.754;5.994;2023-08-31T06:13:11;12.90;99.90
59128;DHT22;44912;52.754;5.994;2023-08-31T06:15:37;12.90;99.90
59128;DHT22;44912;52.754;5.994;2023-08-31T06:18:02;13.10;99.90
59128;DHT22;44912;52.754;5.994;2023-08-31T06:20:28;13.10;99.90
59128;DHT22;44912;52.754;5.994;2023-08-31T06:22:53;13.20;99.90
59128;DHT22;44912;52.754;5.994;2023-08-31T06:25:19;13.20;99.90
59128;DHT22;44912;52.754;5.994;2023-08-31T06:27:46;13.20;99.90
59128;DHT22;44912;52.754;5.994;2023-08-31T06:30:11;13.20;99.90
59128;DHT22;44912;52.754;5.994;2023-08-31T06:32:42;13.30;99.90
59128;DHT22;44912;52.754;5.994;2023-08-31T06:35:08;13.20;99.90
59128;DHT22;44912;52.754;5.994;2023-08-31T06:37:33;13.20;99.90
59128;DHT22;44912;52.754;5.994;2023-08-31T06:39:59;13.20;99.90
59128;DHT22;44912;52.754;5.994;2023-08-31T06:42:24;13.30;99.90
59128;DHT22;44912;52.754;5.994;2023-08-31T06:44:50;13.40;99.90
59128;DHT22;44912;52.754;5.994;2023-08-31T06:47:16;13.50;99.90
59128;DHT22;44912;52.754;5.994;2023-08-31T06:49:43;13.70;99.90
59128;DHT22;44912;52.754;5.994;2023-08-31T06:52:09;13.70;99.90
59128;DHT22;44912;52.754;5.994;2023-08-31T06:54:34;13.90;99.90
59128;DHT22;44912;52.754;5.994;2023-08-31T06:57:00;14.00;99.90
59128;DHT22;44912;52.754;5.994;2023-08-31T06:59:25;14.20;99.90
59128;DHT22;44912;52.754;5.994;2023-08-31T07:01:51;14.40;99.90
59128;DHT22;44912;52.754;5.994;2023-08-31T07:04:17;14.50;99.90
59128;DHT22;44912;52.754;5.994;2023-08-31T07:06:42;14.60;99.90
59128;DHT22;44912;52.754;5.994;2023-08-31T07:09:08;14.70;99.90
59128;DHT22;44912;52.754;5.994;2023-08-31T07:11:34;14.90;99.90
59128;DHT22;44912;52.754;5.994;2023-08-31T07:13:59;15.10;99.90
59128;DHT22;44912;52.754;5.994;2023-08-31T07:16:25;15.00;99.90
59128;DHT22;44912;52.754;5.994;2023-08-31T07:18:51;15.10;99.90
59128;DHT22;44912;52.754;5.994;2023-08-31T07:21:17;15.20;99.90
59128;DHT22;44912;52.754;5.994;2023-08-31T07:23:42;15.30;99.90
59128;DHT22;44912;52.754;5.994;2023-08-31T07:26:08;15.50;99.90
59128;DHT22;44912;52.754;5.994;2023-08-31T07:28:34;15.60;99.90
59128;DHT22;44912;52.754;5.994;2023-08-31T07:31:05;15.70;99.90
59128;DHT22;44912;52.754;5.994;2023-08-31T07:33:32;15.80;99.90
59128;DHT22;44912;52.754;5.994;2023-08-31T07:36:02;15.80;99.90
59128;DHT22;44912;52.754;5.994;2023-08-31T07:38:30;15.70;99.90
59128;DHT22;44912;52.754;5.994;2023-08-31T07:40:56;15.60;99.90
59128;DHT22;44912;52.754;5.994;2023-08-31T07:43:21;15.50;99.90
59128;DHT22;44912;52.754;5.994;2023-08-31T07:45:47;15.40;99.90
59128;DHT22;44912;52.754;5.994;2023-08-31T07:48:13;15.30;99.90
59128;DHT22;44912;52.754;5.994;2023-08-31T07:50:42;15.30;99.90
59128;DHT22;44912;52.754;5.994;2023-08-31T07:53:08;15.30;99.90
59128;DHT22;44912;52.754;5.994;2023-08-31T07:55:33;15.30;99.90
59128;DHT22;44912;52.754;5.994;2023-08-31T07:58:01;15.40;99.90
59128;DHT22;44912;52.754;5.994;2023-08-31T08:00:26;15.60;99.90
59128;DHT22;44912;52.754;5.994;2023-08-31T08:02:52;15.80;99.90
59128;DHT22;44912;52.754;5.994;2023-08-31T08:05:17;15.90;99.90
59128;DHT22;44912;52.754;5.994;2023-08-31T08:07:43;15.90;99.90
59128;DHT22;44912;52.754;5.994;2023-08-31T08:10:09;15.90;99.90
59128;DHT22;44912;52.754;5.994;2023-08-31T08:12:39;15.90;99.90
59128;DHT22;44912;52.754;5.994;2023-08-31T08:15:05;16.00;99.90
59128;DHT22;44912;52.754;5.994;2023-08-31T08:17:33;16.20;99.90
59128;DHT22;44912;52.754;5.994;2023-08-31T08:19:58;16.30;99.90
59128;DHT22;44912;52.754;5.994;2023-08-31T08:22:25;16.40;99.90
59128;DHT22;44912;52.754;5.994;2023-08-31T08:24:50;16.50;99.90
59128;DHT22;44912;52.754;5.994;2023-08-31T08:27:16;16.70;99.90
59128;DHT22;44912;52.754;5.994;2023-08-31T08:29:43;16.70;99.90
59128;DHT22;44912;52.754;5.994;2023-08-31T08:32:08;16.70;99.90
59128;DHT22;44912;52.754;5.994;2023-08-31T08:34:34;16.60;99.90
59128;DHT22;44912;52.754;5.994;2023-08-31T08:37:00;16.50;99.90
59128;DHT22;44912;52.754;5.994;2023-08-31T08:39:25;16.60;99.90
59128;DHT22;44912;52.754;5.994;2023-08-31T08:41:54;16.50;99.90
59128;DHT22;44912;52.754;5.994;2023-08-31T08:44:21;16.50;99.90
59128;DHT22;44912;52.754;5.994;2023-08-31T08:46:48;16.50;99.90
59128;DHT22;44912;52.754;5.994;2023-08-31T08:49:14;16.50;99.90
59128;DHT22;44912;52.754;5.994;2023-08-31T08:51:41;16.50;99.90
59128;DHT22;44912;52.754;5.994;2023-08-31T08:54:07;16.50;99.90
59128;DHT22;44912;52.754;5.994;2023-08-31T08:56:33;16.70;99.90
59128;DHT22;44912;52.754;5.994;2023-08-31T08:59:00;16.80;99.90
59128;DHT22;44912;52.754;5.994;2023-08-31T09:01:25;16.90;99.90
59128;DHT22;44912;52.754;5.994;2023-08-31T09:03:51;17.00;99.90
59128;DHT22;44912;52.754;5.994;2023-08-31T09:06:17;17.10;99.90
59128;DHT22;44912;52.754;5.994;2023-08-31T09:08:43;17.20;99.90
59128;DHT22;44912;52.754;5.994;2023-08-31T09:11:08;17.20;99.90
59128;DHT22;44912;52.754;5.994;2023-08-31T09:13:34;17.40;99.90
59128;DHT22;44912;52.754;5.994;2023-08-31T09:15:59;17.40;99.90
59128;DHT22;44912;52.754;5.994;2023-08-31T09:18:27;17.40;99.90
59128;DHT22;44912;52.754;5.994;2023-08-31T09:20:54;17.20;99.90
59128;DHT22;44912;52.754;5.994;2023-08-31T09:23:20;17.10;99.90
59128;DHT22;44912;52.754;5.994;2023-08-31T09:25:47;17.20;99.90
59128;DHT22;44912;52.754;5.994;2023-08-31T09:28:15;17.50;99.90
59128;DHT22;44912;52.754;5.994;2023-08-31T09:30:41;17.50;99.90
59128;DHT22;44912;52.754;5.994;2023-08-31T09:33:08;17.50;99.90
59128;DHT22;44912;52.754;5.994;2023-08-31T09:35:39;17.20;99.90
59128;DHT22;44912;52.754;5.994;2023-08-31T09:38:08;17.20;99.90
59128;DHT22;44912;52.754;5.994;2023-08-31T09:40:35;17.20;99.90
59128;DHT22;44912;52.754;5.994;2023-08-31T09:43:01;17.50;99.90
59128;DHT22;44912;52.754;5.994;2023-08-31T09:45:31;17.60;99.90
59128;DHT22;44912;52.754;5.994;2023-08-31T09:47:59;17.80;99.90
59128;DHT22;44912;52.754;5.994;2023-08-31T09:50:28;17.90;99.90
59128;DHT22;44912;52.754;5.994;2023-08-31T09:52:56;17.80;99.90
59128;DHT22;44912;52.754;5.994;2023-08-31T09:55:25;17.80;99.90
59128;DHT22;44912;52.754;5.994;2023-08-31T09:57:56;17.80;99.90
59128;DHT22;44912;52.754;5.994;2023-08-31T10:00:23;17.90;99.90
59128;DHT22;44912;52.754;5.994;2023-08-31T10:02:50;17.70;99.90
59128;DHT22;44912;52.754;5.994;2023-08-31T10:05:16;17.60;99.90
59128;DHT22;44912;52.754;5.994;2023-08-31T10:07:43;17.60;99.90
59128;DHT22;44912;52.754;5.994;2023-08-31T10:10:09;17.50;99.90
59128;DHT22;44912;52.754;5.994;2023-08-31T10:12:35;17.40;99.90
59128;DHT22;44912;52.754;5.994;2023-08-31T10:15:02;17.60;99.90
59128;DHT22;44912;52.754;5.994;2023-08-31T10:17:28;17.60;99.90
59128;DHT22;44912;52.754;5.994;2023-08-31T10:19:55;17.40;99.90
59128;DHT22;44912;52.754;5.994;2023-08-31T10:22:21;17.20;99.90
59128;DHT22;44912;52.754;5.994;2023-08-31T10:25:00;17.00;99.90
59128;DHT22;44912;52.754;5.994;2023-08-31T10:27:27;16.80;99.90
59128;DHT22;44912;52.754;5.994;2023-08-31T10:29:52;16.70;99.90
59128;DHT22;44912;52.754;5.994;2023-08-31T10:32:19;16.90;99.90
59128;DHT22;44912;52.754;5.994;2023-08-31T10:35:04;17.20;99.90
59128;DHT22;44912;52.754;5.994;2023-08-31T10:37:30;17.90;99.90
59128;DHT22;44912;52.754;5.994;2023-08-31T10:40:09;18.10;99.90
59128;DHT22;44912;52.754;5.994;2023-08-31T10:42:44;18.20;99.90
59128;DHT22;44912;52.754;5.994;2023-08-31T10:45:10;18.10;99.90
59128;DHT22;44912;52.754;5.994;2023-08-31T10:47:41;17.90;99.90
59128;DHT22;44912;52.754;5.994;2023-08-31T10:50:21;17.60;99.90
59128;DHT22;44912;52.754;5.994;2023-08-31T10:52:47;17.10;99.90
59128;DHT22;44912;52.754;5.994;2023-08-31T10:55:13;16.60;99.90
59128;DHT22;44912;52.754;5.994;2023-08-31T10:57:40;16.00;99.90
59128;DHT22;44912;52.754;5.994;2023-08-31T11:00:07;15.60;99.90
59128;DHT22;44912;52.754;5.994;2023-08-31T11:02:37;15.30;99.90
59128;DHT22;44912;52.754;5.994;2023-08-31T11:05:11;15.20;99.90
59128;DHT22;44912;52.754;5.994;2023-08-31T11:07:39;15.20;99.90
59128;DHT22;44912;52.754;5.994;2023-08-31T11:10:14;15.40;99.90
59128;DHT22;44912;52.754;5.994;2023-08-31T11:12:41;15.50;99.90
59128;DHT22;44912;52.754;5.994;2023-08-31T11:15:07;15.60;99.90
59128;DHT22;44912;52.754;5.994;2023-08-31T11:17:33;15.80;99.90
59128;DHT22;44912;52.754;5.994;2023-08-31T11:20:00;16.00;99.90
59128;DHT22;44912;52.754;5.994;2023-08-31T11:22:26;16.20;99.90
59128;DHT22;44912;52.754;5.994;2023-08-31T11:24:51;16.50;99.90
59128;DHT22;44912;52.754;5.994;2023-08-31T11:27:21;16.70;99.90
59128;DHT22;44912;52.754;5.994;2023-08-31T11:29:46;16.90;99.90
59128;DHT22;44912;52.754;5.994;2023-08-31T11:32:12;17.10;99.90
59128;DHT22;44912;52.754;5.994;2023-08-31T11:34:43;17.50;99.90
59128;DHT22;44912;52.754;5.994;2023-08-31T11:37:13;17.60;99.90
59128;DHT22;44912;52.754;5.994;2023-08-31T11:39:49;17.50;99.90
59128;DHT22;44912;52.754;5.994;2023-08-31T11:42:16;17.40;99.90
59128;DHT22;44912;52.754;5.994;2023-08-31T11:44:42;17.10;99.90
59128;DHT22;44912;52.754;5.994;2023-08-31T11:47:07;16.90;99.90
59128;DHT22;44912;52.754;5.994;2023-08-31T11:49:33;16.80;99.90
59128;DHT22;44912;52.754;5.994;2023-08-31T11:51:59;16.60;99.90
59128;DHT22;44912;52.754;5.994;2023-08-31T11:54:25;16.30;99.90
59128;DHT22;44912;52.754;5.994;2023-08-31T11:56:51;16.00;99.90
59128;DHT22;44912;52.754;5.994;2023-08-31T11:59:18;15.80;99.90
59128;DHT22;44912;52.754;5.994;2023-08-31T12:01:46;15.70;99.90
59128;DHT22;44912;52.754;5.994;2023-08-31T12:04:17;16.00;99.90
59128;DHT22;44912;52.754;5.994;2023-08-31T12:06:50;16.20;99.90
59128;DHT22;44912;52.754;5.994;2023-08-31T12:09:16;16.40;99.90
59128;DHT22;44912;52.754;5.994;2023-08-31T12:11:41;16.50;99.90
59128;DHT22;44912;52.754;5.994;2023-08-31T12:14:21;16.70;99.90
59128;DHT22;44912;52.754;5.994;2023-08-31T12:16:48;16.80;99.90
59128;DHT22;44912;52.754;5.994;2023-08-31T12:19:13;17.10;99.90
59128;DHT22;44912;52.754;5.994;2023-08-31T12:21:42;17.40;99.90
59128;DHT22;44912;52.754;5.994;2023-08-31T12:24:07;17.40;99.90
59128;DHT22;44912;52.754;5.994;2023-08-31T12:26:34;17.40;99.90
59128;DHT22;44912;52.754;5.994;2023-08-31T12:29:00;17.60;99.90
59128;DHT22;44912;52.754;5.994;2023-08-31T12:31:26;17.80;99.90
59128;DHT22;44912;52.754;5.994;2023-08-31T12:33:52;17.90;99.90
59128;DHT22;44912;52.754;5.994;2023-08-31T12:36:17;18.00;99.90
59128;DHT22;44912;52.754;5.994;2023-08-31T12:38:43;18.10;99.90
59128;DHT22;44912;52.754;5.994;2023-08-31T12:41:08;18.30;99.90
59128;DHT22;44912;52.754;5.994;2023-08-31T12:43:34;18.40;99.90
59128;DHT22;44912;52.754;5.994;2023-08-31T12:46:00;18.40;99.90
59128;DHT22;44912;52.754;5.994;2023-08-31T12:48:26;18.40;99.90
59128;DHT22;44912;52.754;5.994;2023-08-31T12:50:52;18.30;99.90
59128;DHT22;44912;52.754;5.994;2023-08-31T12:53:21;18.50;99.90
59128;DHT22;44912;52.754;5.994;2023-08-31T12:55:47;18.50;99.90
59128;DHT22;44912;52.754;5.994;2023-08-31T12:58:13;18.40;99.90
59128;DHT22;44912;52.754;5.994;2023-08-31T13:00:38;18.40;99.90
59128;DHT22;44912;52.754;5.994;2023-08-31T13:03:04;18.40;99.90
59128;DHT22;44912;52.754;5.994;2023-08-31T13:05:32;18.30;99.90
59128;DHT22;44912;52.754;5.994;2023-08-31T13:07:57;18.00;99.90
59128;DHT22;44912;52.754;5.994;2023-08-31T13:10:23;18.00;99.90
59128;DHT22;44912;52.754;5.994;2023-08-31T13:12:49;18.10;99.90
59128;DHT22;44912;52.754;5.994;2023-08-31T13:15:14;18.20;99.90
59128;DHT22;44912;52.754;5.994;2023-08-31T13:17:40;18.00;99.90
59128;DHT22;44912;52.754;5.994;2023-08-31T13:20:06;17.90;99.90
59128;DHT22;44912;52.754;5.994;2023-08-31T13:22:34;18.10;99.90
59128;DHT22;44912;52.754;5.994;2023-08-31T13:24:59;18.30;99.90
59128;DHT22;44912;52.754;5.994;2023-08-31T13:27:25;18.40;99.90
59128;DHT22;44912;52.754;5.994;2023-08-31T13:29:51;18.60;99.90
59128;DHT22;44912;52.754;5.994;2023-08-31T13:32:17;18.60;99.90
59128;DHT22;44912;52.754;5.994;2023-08-31T13:34:42;18.50;99.90
59128;DHT22;44912;52.754;5.994;2023-08-31T13:37:08;18.30;99.90
59128;DHT22;44912;52.754;5.994;2023-08-31T13:39:35;18.10;99.90
59128;DHT22;44912;52.754;5.994;2023-08-31T13:42:05;18.00;99.90
59128;DHT22;44912;52.754;5.994;2023-08-31T13:44:32;18.00;99.90
59128;DHT22;44912;52.754;5.994;2023-08-31T13:46:57;18.00;99.90
59128;DHT22;44912;52.754;5.994;2023-08-31T13:49:23;18.20;99.90
59128;DHT22;44912;52.754;5.994;2023-08-31T13:51:49;18.30;99.90
59128;DHT22;44912;52.754;5.994;2023-08-31T13:54:14;18.40;99.90
59128;DHT22;44912;52.754;5.994;2023-08-31T13:56:40;18.40;99.90
59128;DHT22;44912;52.754;5.994;2023-08-31T13:59:06;18.60;99.90
59128;DHT22;44912;52.754;5.994;2023-08-31T14:01:31;18.70;99.90
59128;DHT22;44912;52.754;5.994;2023-08-31T14:03:57;18.80;99.90
59128;DHT22;44912;52.754;5.994;2023-08-31T14:06:22;18.90;99.90
59128;DHT22;44912;52.754;5.994;2023-08-31T14:08:48;18.90;99.90
59128;DHT22;44912;52.754;5.994;2023-08-31T14:11:14;19.10;99.90
59128;DHT22;44912;52.754;5.994;2023-08-31T14:13:39;19.10;99.90
59128;DHT22;44912;52.754;5.994;2023-08-31T14:16:06;19.00;99.90
59128;DHT22;44912;52.754;5.994;2023-08-31T14:18:32;19.00;99.90
59128;DHT22;44912;52.754;5.994;2023-08-31T14:20:58;19.10;99.90
59128;DHT22;44912;52.754;5.994;2023-08-31T14:23:25;19.10;99.90
59128;DHT22;44912;52.754;5.994;2023-08-31T14:25:50;18.90;99.90
59128;DHT22;44912;52.754;5.994;2023-08-31T14:28:16;18.80;99.90
59128;DHT22;44912;52.754;5.994;2023-08-31T14:30:41;18.90;99.90
59128;DHT22;44912;52.754;5.994;2023-08-31T14:33:07;18.90;99.90
59128;DHT22;44912;52.754;5.994;2023-08-31T14:35:36;18.90;99.90
59128;DHT22;44912;52.754;5.994;2023-08-31T14:38:02;18.90;99.90
59128;DHT22;44912;52.754;5.994;2023-08-31T14:40:28;18.90;99.90
59128;DHT22;44912;52.754;5.994;2023-08-31T14:42:53;18.90;99.90
59128;DHT22;44912;52.754;5.994;2023-08-31T14:45:19;18.80;99.90
59128;DHT22;44912;52.754;5.994;2023-08-31T14:47:45;18.90;99.90
59128;DHT22;44912;52.754;5.994;2023-08-31T14:50:10;18.80;99.90
59128;DHT22;44912;52.754;5.994;2023-08-31T14:52:36;18.80;99.90
59128;DHT22;44912;52.754;5.994;2023-08-31T14:55:02;18.90;99.90
59128;DHT22;44912;52.754;5.994;2023-08-31T14:57:29;18.80;99.90
59128;DHT22;44912;52.754;5.994;2023-08-31T14:59:55;18.90;99.90
59128;DHT22;44912;52.754;5.994;2023-08-31T15:02:24;18.90;99.90
59128;DHT22;44912;52.754;5.994;2023-08-31T15:04:49;18.90;99.90
59128;DHT22;44912;52.754;5.994;2023-08-31T15:07:16;18.90;99.90
59128;DHT22;44912;52.754;5.994;2023-08-31T15:09:42;18.70;99.90
59128;DHT22;44912;52.754;5.994;2023-08-31T15:12:08;18.60;99.90
59128;DHT22;44912;52.754;5.994;2023-08-31T15:14:33;18.50;99.90
59128;DHT22;44912;52.754;5.994;2023-08-31T15:16:59;18.60;99.90
59128;DHT22;44912;52.754;5.994;2023-08-31T15:19:24;18.80;99.90
59128;DHT22;44912;52.754;5.994;2023-08-31T15:21:50;18.90;99.90
59128;DHT22;44912;52.754;5.994;2023-08-31T15:24:15;18.90;99.90
59128;DHT22;44912;52.754;5.994;2023-08-31T15:26:41;18.80;99.90
59128;DHT22;44912;52.754;5.994;2023-08-31T15:29:08;18.60;99.90
59128;DHT22;44912;52.754;5.994;2023-08-31T15:31:34;18.60;99.90
59128;DHT22;44912;52.754;5.994;2023-08-31T15:34:00;18.40;99.90
59128;DHT22;44912;52.754;5.994;2023-08-31T15:36:25;18.50;99.90
59128;DHT22;44912;52.754;5.994;2023-08-31T15:38:51;18.50;99.90
59128;DHT22;44912;52.754;5.994;2023-08-31T15:41:17;18.20;99.90
59128;DHT22;44912;52.754;5.994;2023-08-31T15:43:42;18.00;99.90
59128;DHT22;44912;52.754;5.994;2023-08-31T15:46:08;17.90;99.90
59128;DHT22;44912;52.754;5.994;2023-08-31T15:48:34;18.00;99.90
59128;DHT22;44912;52.754;5.994;2023-08-31T15:50:59;18.00;99.90
59128;DHT22;44912;52.754;5.994;2023-08-31T15:53:25;18.20;99.90
59128;DHT22;44912;52.754;5.994;2023-08-31T15:55:53;18.30;99.90
59128;DHT22;44912;52.754;5.994;2023-08-31T15:58:19;18.30;99.90
59128;DHT22;44912;52.754;5.994;2023-08-31T16:00:46;18.30;99.90
59128;DHT22;44912;52.754;5.994;2023-08-31T16:03:11;18.20;99.90
59128;DHT22;44912;52.754;5.994;2023-08-31T16:05:37;18.00;99.90
59128;DHT22;44912;52.754;5.994;2023-08-31T16:08:04;18.00;99.90